WXM80 ListenWXM80 Stop

You find our weather info also at:

UK Metoffice

WeatherCloud

Weather Underground

Northeastern Weather Network

AWEKAS

Citizen Weather Observer Program (CWOP)

HAMweather, WeatherForYou, PWS Weather


Weather Underground History page Text

Daily Summary for December 6, 2017 Units:  Both    English   Metric
« Previous Day
Next Day »
Daily Weekly Monthly Yearly Custom
  High: Low: Average:
Temperature: 57.8 °F /  14.3 °C 39.3 °F /  4.1 °C 46.5 °F /  8.1 °C
Dew Point: 57.0 °F /  13.9 °C 24.2 °F /  -4.3 °C 34.8 °F /  1.6 °C
Humidity: 97 % 48 % 65 %
Wind Speed: 12.6 mph /  20.3 km/h - 4.5 mph /  7.2 km/h
Wind Gust: 23.0 mph /  37 km/h - -
Wind:- - WSW
Pressure: 30.01 in /  1016.1 hPa 29.78 in /  1008.4 hPa -
Precipitation: 0.01 in /  0.25 mm    
Historical Graphs
 
 
Tabular Data for December 6, 2017
Time Temperature Dew Point Pressure Wind Wind Speed Wind Gust Humidity Rainfall Rate (Hourly)
00:04 57.8 °F /  14.3 °C 56.7 °F /  13.7 °C 29.80 in /  1009 hPa SSW 3.3 mph /  5.3 km/h 4.6 mph /  7.4 km/h 96 % 0.01 in /  0.25 mm
00:09 57.7 °F /  14.3 °C 56.6 °F /  13.7 °C 29.80 in /  1009 hPa SSW 4.6 mph /  7.4 km/h 10.0 mph /  16.1 km/h 96 % 0.01 in /  0.25 mm
00:19 57.7 °F /  14.3 °C 56.6 °F /  13.7 °C 29.80 in /  1009 hPa SSW 3.7 mph /  6 km/h 6.0 mph /  9.7 km/h 96 % 0.00 in /  0 mm
00:24 57.6 °F /  14.2 °C 56.5 °F /  13.6 °C 29.80 in /  1009 hPa SW 5.3 mph /  8.5 km/h 8.1 mph /  13 km/h 96 % 0.00 in /  0 mm
00:29 57.6 °F /  14.2 °C 56.5 °F /  13.6 °C 29.81 in /  1009.4 hPa SSW 6.7 mph /  10.8 km/h 11.0 mph /  17.7 km/h 96 % 0.00 in /  0 mm
00:34 57.6 °F /  14.2 °C 56.5 °F /  13.6 °C 29.80 in /  1009 hPa SSW 3.0 mph /  4.8 km/h 4.6 mph /  7.4 km/h 96 % 0.00 in /  0 mm
00:39 57.6 °F /  14.2 °C 56.5 °F /  13.6 °C 29.80 in /  1009 hPa South 3.7 mph /  6 km/h 8.1 mph /  13 km/h 96 % 0.00 in /  0 mm
00:44 57.6 °F /  14.2 °C 56.5 °F /  13.6 °C 29.80 in /  1009 hPa SW 6.4 mph /  10.3 km/h 10.4 mph /  16.7 km/h 96 % 0.00 in /  0 mm
00:49 57.6 °F /  14.2 °C 56.5 °F /  13.6 °C 29.80 in /  1009 hPa SSW 6.4 mph /  10.3 km/h 10.4 mph /  16.7 km/h 96 % 0.00 in /  0 mm
00:54 57.6 °F /  14.2 °C 56.5 °F /  13.6 °C 29.80 in /  1009 hPa SSW 3.2 mph /  5.1 km/h 5.8 mph /  9.3 km/h 96 % 0.00 in /  0 mm
00:59 57.6 °F /  14.2 °C 56.5 °F /  13.6 °C 29.80 in /  1009 hPa SSW 4.9 mph /  7.9 km/h 8.0 mph /  12.9 km/h 96 % 0.00 in /  0 mm
01:04 57.6 °F /  14.2 °C 56.5 °F /  13.6 °C 29.79 in /  1008.7 hPa SSW 1.2 mph /  1.9 km/h 4.6 mph /  7.4 km/h 96 % 0.00 in /  0 mm
01:09 57.5 °F /  14.2 °C 56.4 °F /  13.6 °C 29.80 in /  1009 hPa SW 6.2 mph /  10 km/h 9.2 mph /  14.8 km/h 96 % 0.00 in /  0 mm
01:14 57.5 °F /  14.2 °C 56.4 °F /  13.6 °C 29.80 in /  1009 hPa WSW 5.8 mph /  9.3 km/h 9.0 mph /  14.5 km/h 96 % 0.00 in /  0 mm
01:19 57.6 °F /  14.2 °C 56.5 °F /  13.6 °C 29.80 in /  1009 hPa SSW 8.2 mph /  13.2 km/h 11.0 mph /  17.7 km/h 96 % 0.00 in /  0 mm
01:24 57.6 °F /  14.2 °C 56.8 °F /  13.8 °C 29.81 in /  1009.4 hPa South 3.7 mph /  6 km/h 9.2 mph /  14.8 km/h 97 % 0.00 in /  0 mm
01:29 57.6 °F /  14.2 °C 56.8 °F /  13.8 °C 29.81 in /  1009.4 hPa South 5.4 mph /  8.7 km/h 9.0 mph /  14.5 km/h 97 % 0.00 in /  0 mm
01:34 57.7 °F /  14.3 °C 56.9 °F /  13.8 °C 29.81 in /  1009.4 hPa South 4.5 mph /  7.2 km/h 11.0 mph /  17.7 km/h 97 % 0.00 in /  0 mm
01:39 57.7 °F /  14.3 °C 56.9 °F /  13.8 °C 29.81 in /  1009.4 hPa SSW 3.9 mph /  6.3 km/h 10.4 mph /  16.7 km/h 97 % 0.00 in /  0 mm
01:44 57.7 °F /  14.3 °C 56.9 °F /  13.8 °C 29.81 in /  1009.4 hPa SW 3.5 mph /  5.6 km/h 12.0 mph /  19.3 km/h 97 % 0.00 in /  0 mm
01:49 57.8 °F /  14.3 °C 57.0 °F /  13.9 °C 29.80 in /  1009 hPa South 4.3 mph /  6.9 km/h 6.9 mph /  11.1 km/h 97 % 0.00 in /  0 mm
01:54 57.7 °F /  14.3 °C 56.9 °F /  13.8 °C 29.80 in /  1009 hPa South 2.2 mph /  3.5 km/h 6.9 mph /  11.1 km/h 97 % 0.00 in /  0 mm
01:59 57.7 °F /  14.3 °C 56.9 °F /  13.8 °C 29.80 in /  1009 hPa SSW 5.0 mph /  8 km/h 11.5 mph /  18.5 km/h 97 % 0.00 in /  0 mm
02:04 57.7 °F /  14.3 °C 56.9 °F /  13.8 °C 29.80 in /  1009 hPa SW 3.3 mph /  5.3 km/h 5.8 mph /  9.3 km/h 97 % 0.00 in /  0 mm
02:09 57.7 °F /  14.3 °C 56.9 °F /  13.8 °C 29.80 in /  1009 hPa WSW 3.0 mph /  4.8 km/h 5.8 mph /  9.3 km/h 97 % 0.00 in /  0 mm
02:15 57.7 °F /  14.3 °C 56.9 °F /  13.8 °C 29.80 in /  1009 hPa WSW 5.2 mph /  8.4 km/h 6.9 mph /  11.1 km/h 97 % 0.00 in /  0 mm
02:20 57.7 °F /  14.3 °C 56.9 °F /  13.8 °C 29.80 in /  1009 hPa South 1.6 mph /  2.6 km/h 8.1 mph /  13 km/h 97 % 0.00 in /  0 mm
02:25 57.7 °F /  14.3 °C 56.9 °F /  13.8 °C 29.80 in /  1009 hPa SSW 3.9 mph /  6.3 km/h 7.0 mph /  11.3 km/h 97 % 0.00 in /  0 mm
02:30 57.7 °F /  14.3 °C 56.9 °F /  13.8 °C 29.79 in /  1008.7 hPa WSW 2.1 mph /  3.4 km/h 5.8 mph /  9.3 km/h 97 % 0.00 in /  0 mm
02:35 57.7 °F /  14.3 °C 56.9 °F /  13.8 °C 29.79 in /  1008.7 hPa WSW 2.5 mph /  4 km/h 5.0 mph /  8 km/h 97 % 0.00 in /  0 mm
02:40 57.7 °F /  14.3 °C 56.9 °F /  13.8 °C 29.79 in /  1008.7 hPa SW 2.0 mph /  3.2 km/h 3.5 mph /  5.6 km/h 97 % 0.00 in /  0 mm
02:45 57.6 °F /  14.2 °C 56.8 °F /  13.8 °C 29.80 in /  1009 hPa SW 1.1 mph /  1.8 km/h 4.6 mph /  7.4 km/h 97 % 0.00 in /  0 mm
02:50 57.6 °F /  14.2 °C 56.8 °F /  13.8 °C 29.80 in /  1009 hPa SW 3.7 mph /  6 km/h 6.9 mph /  11.1 km/h 97 % 0.00 in /  0 mm
02:55 57.6 °F /  14.2 °C 56.8 °F /  13.8 °C 29.80 in /  1009 hPa West 0.8 mph /  1.3 km/h 3.5 mph /  5.6 km/h 97 % 0.00 in /  0 mm
03:00 57.6 °F /  14.2 °C 56.8 °F /  13.8 °C 29.80 in /  1009 hPa WSW 2.4 mph /  3.9 km/h 6.9 mph /  11.1 km/h 97 % 0.00 in /  0 mm
03:05 57.6 °F /  14.2 °C 56.8 °F /  13.8 °C 29.80 in /  1009 hPa SW 4.8 mph /  7.7 km/h 11.5 mph /  18.5 km/h 97 % 0.00 in /  0 mm
03:10 57.6 °F /  14.2 °C 56.8 °F /  13.8 °C 29.79 in /  1008.7 hPa SSW 3.4 mph /  5.5 km/h 6.9 mph /  11.1 km/h 97 % 0.00 in /  0 mm
03:15 57.6 °F /  14.2 °C 56.8 °F /  13.8 °C 29.79 in /  1008.7 hPa SW 4.3 mph /  6.9 km/h 6.9 mph /  11.1 km/h 97 % 0.00 in /  0 mm
03:20 57.6 °F /  14.2 °C 56.8 °F /  13.8 °C 29.80 in /  1009 hPa SW 4.9 mph /  7.9 km/h 10.4 mph /  16.7 km/h 97 % 0.00 in /  0 mm
03:25 57.6 °F /  14.2 °C 56.8 °F /  13.8 °C 29.80 in /  1009 hPa SW 4.9 mph /  7.9 km/h 9.2 mph /  14.8 km/h 97 % 0.00 in /  0 mm
03:30 57.6 °F /  14.2 °C 56.8 °F /  13.8 °C 29.80 in /  1009 hPa SW 3.5 mph /  5.6 km/h 6.9 mph /  11.1 km/h 97 % 0.00 in /  0 mm
03:35 57.6 °F /  14.2 °C 56.8 °F /  13.8 °C 29.80 in /  1009 hPa SSW 5.5 mph /  8.9 km/h 9.2 mph /  14.8 km/h 97 % 0.00 in /  0 mm
03:40 57.5 °F /  14.2 °C 56.7 °F /  13.7 °C 29.80 in /  1009 hPa WSW 4.2 mph /  6.8 km/h 6.9 mph /  11.1 km/h 97 % 0.00 in /  0 mm
03:45 57.5 °F /  14.2 °C 56.7 °F /  13.7 °C 29.81 in /  1009.4 hPa SSW 3.9 mph /  6.3 km/h 6.0 mph /  9.7 km/h 97 % 0.00 in /  0 mm
03:50 57.5 °F /  14.2 °C 56.7 °F /  13.7 °C 29.81 in /  1009.4 hPa WSW 4.0 mph /  6.4 km/h 6.9 mph /  11.1 km/h 97 % 0.00 in /  0 mm
03:55 57.5 °F /  14.2 °C 56.7 °F /  13.7 °C 29.83 in /  1010 hPa NW 5.7 mph /  9.2 km/h 11.0 mph /  17.7 km/h 97 % 0.00 in /  0 mm
04:00 56.1 °F /  13.4 °C 53.8 °F /  12.1 °C 29.84 in /  1010.4 hPa NW 12.6 mph /  20.3 km/h 19.6 mph /  31.5 km/h 92 % 0.00 in /  0 mm
04:05 54.6 °F /  12.6 °C 50.8 °F /  10.4 °C 29.85 in /  1010.7 hPa WSW 10.1 mph /  16.3 km/h 23.0 mph /  37 km/h 87 % 0.00 in /  0 mm
04:10 53.4 °F /  11.9 °C 49.0 °F /  9.4 °C 29.84 in /  1010.4 hPa WNW 6.2 mph /  10 km/h 14.0 mph /  22.5 km/h 85 % 0.00 in /  0 mm
04:15 52.7 °F /  11.5 °C 48.3 °F /  9.1 °C 29.86 in /  1011.1 hPa WNW 4.4 mph /  7.1 km/h 16.1 mph /  25.9 km/h 85 % 0.00 in /  0 mm
04:20 52.2 °F /  11.2 °C 47.8 °F /  8.8 °C 29.87 in /  1011.4 hPa West 8.1 mph /  13 km/h 13.0 mph /  20.9 km/h 85 % 0.00 in /  0 mm
04:25 51.8 °F /  11 °C 47.7 °F /  8.7 °C 29.87 in /  1011.4 hPa WNW 4.0 mph /  6.4 km/h 13.8 mph /  22.2 km/h 86 % 0.00 in /  0 mm
04:30 51.4 °F /  10.8 °C 47.7 °F /  8.7 °C 29.87 in /  1011.4 hPa West 5.8 mph /  9.3 km/h 8.0 mph /  12.9 km/h 87 % 0.00 in /  0 mm
04:35 51.1 °F /  10.6 °C 47.4 °F /  8.6 °C 29.88 in /  1011.7 hPa WNW 2.9 mph /  4.7 km/h 11.5 mph /  18.5 km/h 87 % 0.00 in /  0 mm
04:40 50.8 °F /  10.4 °C 47.4 °F /  8.6 °C 29.87 in /  1011.4 hPa West 1.2 mph /  1.9 km/h 7.0 mph /  11.3 km/h 88 % 0.00 in /  0 mm
04:45 50.5 °F /  10.3 °C 47.1 °F /  8.4 °C 29.87 in /  1011.4 hPa West 5.3 mph /  8.5 km/h 8.1 mph /  13 km/h 88 % 0.00 in /  0 mm
04:55 50.0 °F /  10 °C 46.3 °F /  7.9 °C 29.86 in /  1011.1 hPa NW 3.3 mph /  5.3 km/h 6.9 mph /  11.1 km/h 87 % 0.00 in /  0 mm
05:00 49.8 °F /  9.9 °C 45.5 °F /  7.5 °C 29.86 in /  1011.1 hPa West 4.5 mph /  7.2 km/h 9.2 mph /  14.8 km/h 85 % 0.00 in /  0 mm
05:05 49.6 °F /  9.8 °C 45.3 °F /  7.4 °C 29.86 in /  1011.1 hPa SSW 4.9 mph /  7.9 km/h 7.0 mph /  11.3 km/h 85 % 0.00 in /  0 mm
05:10 49.5 °F /  9.7 °C 44.9 °F /  7.2 °C 29.86 in /  1011.1 hPa WSW 6.7 mph /  10.8 km/h 10.4 mph /  16.7 km/h 84 % 0.01 in /  0.25 mm
05:15 49.4 °F /  9.7 °C 44.8 °F /  7.1 °C 29.86 in /  1011.1 hPa WSW 3.3 mph /  5.3 km/h 6.9 mph /  11.1 km/h 84 % 0.01 in /  0.25 mm
05:20 49.4 °F /  9.7 °C 44.8 °F /  7.1 °C 29.86 in /  1011.1 hPa WSW 6.9 mph /  11.1 km/h 10.0 mph /  16.1 km/h 84 % 0.01 in /  0.25 mm
05:25 49.3 °F /  9.6 °C 44.4 °F /  6.9 °C 29.87 in /  1011.4 hPa WNW 4.0 mph /  6.4 km/h 8.1 mph /  13 km/h 83 % 0.01 in /  0.25 mm
05:30 49.2 °F /  9.6 °C 44.3 °F /  6.8 °C 29.87 in /  1011.4 hPa WSW 5.7 mph /  9.2 km/h 9.0 mph /  14.5 km/h 83 % 0.01 in /  0.25 mm
05:35 49.2 °F /  9.6 °C 43.6 °F /  6.4 °C 29.87 in /  1011.4 hPa WSW 6.1 mph /  9.8 km/h 11.5 mph /  18.5 km/h 81 % 0.01 in /  0.25 mm
05:41 49.1 °F /  9.5 °C 43.2 °F /  6.2 °C 29.87 in /  1011.4 hPa WSW 3.0 mph /  4.8 km/h 10.0 mph /  16.1 km/h 80 % 0.00 in /  0 mm
05:46 49.1 °F /  9.5 °C 43.2 °F /  6.2 °C 29.87 in /  1011.4 hPa SW 6.5 mph /  10.5 km/h 11.5 mph /  18.5 km/h 80 % 0.01 in /  0.25 mm
05:51 49.1 °F /  9.5 °C 42.9 °F /  6.1 °C 29.88 in /  1011.7 hPa WSW 6.0 mph /  9.7 km/h 9.0 mph /  14.5 km/h 79 % 0.00 in /  0 mm
05:56 49.1 °F /  9.5 °C 42.5 °F /  5.8 °C 29.88 in /  1011.7 hPa WSW 3.0 mph /  4.8 km/h 14.0 mph /  22.5 km/h 78 % 0.00 in /  0 mm
06:01 49.1 °F /  9.5 °C 42.2 °F /  5.7 °C 29.88 in /  1011.7 hPa SW 3.1 mph /  5 km/h 11.0 mph /  17.7 km/h 77 % 0.01 in /  0.25 mm
06:06 49.0 °F /  9.4 °C 41.8 °F /  5.4 °C 29.88 in /  1011.7 hPa WSW 7.0 mph /  11.3 km/h 14.0 mph /  22.5 km/h 76 % 0.00 in /  0 mm
06:11 49.0 °F /  9.4 °C 41.8 °F /  5.4 °C 29.88 in /  1011.7 hPa WSW 7.0 mph /  11.3 km/h 13.0 mph /  20.9 km/h 76 % 0.00 in /  0 mm
06:16 49.0 °F /  9.4 °C 41.4 °F /  5.2 °C 29.89 in /  1012.1 hPa WSW 5.0 mph /  8 km/h 14.0 mph /  22.5 km/h 75 % 0.00 in /  0 mm
06:21 49.0 °F /  9.4 °C 41.4 °F /  5.2 °C 29.89 in /  1012.1 hPa WSW 5.0 mph /  8 km/h 15.0 mph /  24.1 km/h 75 % 0.00 in /  0 mm
06:26 49.0 °F /  9.4 °C 41.4 °F /  5.2 °C 29.89 in /  1012.1 hPa WSW 6.0 mph /  9.7 km/h 12.0 mph /  19.3 km/h 75 % 0.00 in /  0 mm
06:31 49.0 °F /  9.4 °C 41.4 °F /  5.2 °C 29.89 in /  1012.1 hPa WSW 8.0 mph /  12.9 km/h 10.0 mph /  16.1 km/h 75 % 0.00 in /  0 mm
06:36 49.0 °F /  9.4 °C 40.7 °F /  4.8 °C 29.89 in /  1012.1 hPa WSW 6.0 mph /  9.7 km/h 14.0 mph /  22.5 km/h 73 % 0.00 in /  0 mm
06:41 49.0 °F /  9.4 °C 40.7 °F /  4.8 °C 29.89 in /  1012.1 hPa SW 5.0 mph /  8 km/h 15.0 mph /  24.1 km/h 73 % 0.00 in /  0 mm
06:46 49.0 °F /  9.4 °C 40.4 °F /  4.7 °C 29.90 in /  1012.4 hPa SW 3.0 mph /  4.8 km/h 8.0 mph /  12.9 km/h 72 % 0.00 in /  0 mm
06:51 49.0 °F /  9.4 °C 40.4 °F /  4.7 °C 29.89 in /  1012.1 hPa WSW 5.0 mph /  8 km/h 12.0 mph /  19.3 km/h 72 % 0.00 in /  0 mm
06:55 49.0 °F /  9.4 °C 40.4 °F /  4.7 °C 29.90 in /  1012.4 hPa WSW 3.0 mph /  4.8 km/h 10.0 mph /  16.1 km/h 72 % 0.00 in /  0 mm
07:01 49.0 °F /  9.4 °C 40.0 °F /  4.4 °C 29.90 in /  1012.4 hPa West 4.7 mph /  7.6 km/h 6.9 mph /  11.1 km/h 71 % 0.00 in /  0 mm
07:06 49.0 °F /  9.4 °C 39.6 °F /  4.2 °C 29.90 in /  1012.4 hPa West 4.2 mph /  6.8 km/h 8.1 mph /  13 km/h 70 % 0.00 in /  0 mm
07:11 49.0 °F /  9.4 °C 39.6 °F /  4.2 °C 29.90 in /  1012.4 hPa WSW 4.4 mph /  7.1 km/h 8.1 mph /  13 km/h 70 % 0.00 in /  0 mm
07:16 48.9 °F /  9.4 °C 39.2 °F /  4 °C 29.91 in /  1012.8 hPa WNW 5.8 mph /  9.3 km/h 9.0 mph /  14.5 km/h 69 % 0.00 in /  0 mm
07:21 48.9 °F /  9.4 °C 38.8 °F /  3.8 °C 29.91 in /  1012.8 hPa West 4.4 mph /  7.1 km/h 8.1 mph /  13 km/h 68 % 0.00 in /  0 mm
07:26 48.9 °F /  9.4 °C 38.8 °F /  3.8 °C 29.91 in /  1012.8 hPa WSW 2.9 mph /  4.7 km/h 5.8 mph /  9.3 km/h 68 % 0.00 in /  0 mm
07:31 48.9 °F /  9.4 °C 38.8 °F /  3.8 °C 29.92 in /  1013.1 hPa WSW 4.4 mph /  7.1 km/h 6.9 mph /  11.1 km/h 68 % 0.00 in /  0 mm
07:36 48.8 °F /  9.3 °C 37.9 °F /  3.3 °C 29.91 in /  1012.8 hPa West 2.6 mph /  4.2 km/h 11.5 mph /  18.5 km/h 66 % 0.00 in /  0 mm
07:41 48.8 °F /  9.3 °C 37.9 °F /  3.3 °C 29.92 in /  1013.1 hPa WNW 6.3 mph /  10.1 km/h 11.5 mph /  18.5 km/h 66 % 0.00 in /  0 mm
07:46 48.7 °F /  9.3 °C 37.5 °F /  3.1 °C 29.92 in /  1013.1 hPa WSW 7.5 mph /  12.1 km/h 11.5 mph /  18.5 km/h 65 % 0.00 in /  0 mm
07:51 48.7 °F /  9.3 °C 36.7 °F /  2.6 °C 29.92 in /  1013.1 hPa WNW 4.5 mph /  7.2 km/h 8.1 mph /  13 km/h 63 % 0.00 in /  0 mm
07:54 48.7 °F /  9.3 °C 37.1 °F /  2.8 °C 29.92 in /  1013.1 hPa West 3.0 mph /  4.8 km/h 6.9 mph /  11.1 km/h 64 % 0.00 in /  0 mm
07:59 48.6 °F /  9.2 °C 36.6 °F /  2.6 °C 29.93 in /  1013.4 hPa West 1.3 mph /  2.1 km/h 3.5 mph /  5.6 km/h 63 % 0.00 in /  0 mm
08:04 48.5 °F /  9.2 °C 36.5 °F /  2.5 °C 29.93 in /  1013.4 hPa SW 3.9 mph /  6.3 km/h 7.0 mph /  11.3 km/h 63 % 0.00 in /  0 mm
08:09 48.4 °F /  9.1 °C 36.4 °F /  2.4 °C 29.93 in /  1013.4 hPa West 7.0 mph /  11.3 km/h 11.5 mph /  18.5 km/h 63 % 0.00 in /  0 mm
08:10 48.4 °F /  9.1 °C 36.4 °F /  2.4 °C 29.93 in /  1013.4 hPa WSW 3.5 mph /  5.6 km/h 9.2 mph /  14.8 km/h 63 % 0.00 in /  0 mm
08:15 48.3 °F /  9.1 °C 36.7 °F /  2.6 °C 29.94 in /  1013.8 hPa NW 5.4 mph /  8.7 km/h 11.5 mph /  18.5 km/h 64 % 0.00 in /  0 mm
08:20 48.2 °F /  9 °C 36.2 °F /  2.3 °C 29.94 in /  1013.8 hPa West 6.3 mph /  10.1 km/h 10.4 mph /  16.7 km/h 63 % 0.00 in /  0 mm
08:25 48.1 °F /  8.9 °C 35.7 °F /  2.1 °C 29.94 in /  1013.8 hPa West 5.0 mph /  8 km/h 15.0 mph /  24.1 km/h 62 % 0.00 in /  0 mm
08:30 47.9 °F /  8.8 °C 35.9 °F /  2.2 °C 29.94 in /  1013.8 hPa WSW 5.6 mph /  9 km/h 10.4 mph /  16.7 km/h 63 % 0.00 in /  0 mm
08:35 47.9 °F /  8.8 °C 35.9 °F /  2.2 °C 29.94 in /  1013.8 hPa WNW 5.0 mph /  8 km/h 11.0 mph /  17.7 km/h 63 % 0.00 in /  0 mm
08:40 47.8 °F /  8.8 °C 35.8 °F /  2.1 °C 29.94 in /  1013.8 hPa SW 7.4 mph /  11.9 km/h 11.5 mph /  18.5 km/h 63 % 0.00 in /  0 mm
08:45 47.7 °F /  8.7 °C 35.7 °F /  2.1 °C 29.94 in /  1013.8 hPa West 5.5 mph /  8.9 km/h 9.2 mph /  14.8 km/h 63 % 0.00 in /  0 mm
08:50 47.6 °F /  8.7 °C 36.4 °F /  2.4 °C 29.95 in /  1014.1 hPa WNW 4.4 mph /  7.1 km/h 9.2 mph /  14.8 km/h 65 % 0.00 in /  0 mm
08:55 47.6 °F /  8.7 °C 36.8 °F /  2.7 °C 29.95 in /  1014.1 hPa West 6.0 mph /  9.7 km/h 6.9 mph /  11.1 km/h 66 % 0.00 in /  0 mm
09:00 47.4 °F /  8.6 °C 35.8 °F /  2.1 °C 29.95 in /  1014.1 hPa West 6.4 mph /  10.3 km/h 12.7 mph /  20.4 km/h 64 % 0.00 in /  0 mm
09:05 47.2 °F /  8.4 °C 35.2 °F /  1.8 °C 29.95 in /  1014.1 hPa WNW 5.7 mph /  9.2 km/h 11.5 mph /  18.5 km/h 63 % 0.00 in /  0 mm
09:10 47.0 °F /  8.3 °C 35.0 °F /  1.7 °C 29.96 in /  1014.4 hPa NW 4.1 mph /  6.6 km/h 11.5 mph /  18.5 km/h 63 % 0.00 in /  0 mm
09:15 46.8 °F /  8.2 °C 34.5 °F /  1.4 °C 29.96 in /  1014.4 hPa NW 7.3 mph /  11.7 km/h 15.0 mph /  24.1 km/h 62 % 0.00 in /  0 mm
09:19 46.7 °F /  8.2 °C 34.8 °F /  1.6 °C 29.96 in /  1014.4 hPa WNW 6.4 mph /  10.3 km/h 9.2 mph /  14.8 km/h 63 % 0.00 in /  0 mm
09:24 46.5 °F /  8.1 °C 34.6 °F /  1.4 °C 29.97 in /  1014.8 hPa WNW 4.7 mph /  7.6 km/h 10.4 mph /  16.7 km/h 63 % 0.00 in /  0 mm
09:29 46.3 °F /  7.9 °C 34.4 °F /  1.3 °C 29.97 in /  1014.8 hPa WSW 7.2 mph /  11.6 km/h 12.7 mph /  20.4 km/h 63 % 0.00 in /  0 mm
09:34 46.1 °F /  7.8 °C 34.2 °F /  1.2 °C 29.97 in /  1014.8 hPa NW 6.6 mph /  10.6 km/h 12.7 mph /  20.4 km/h 63 % 0.00 in /  0 mm
09:39 46.0 °F /  7.8 °C 33.7 °F /  0.9 °C 29.97 in /  1014.8 hPa NW 4.4 mph /  7.1 km/h 9.2 mph /  14.8 km/h 62 % 0.00 in /  0 mm
09:44 45.8 °F /  7.7 °C 33.9 °F /  1.1 °C 29.97 in /  1014.8 hPa WNW 7.0 mph /  11.3 km/h 13.0 mph /  20.9 km/h 63 % 0.00 in /  0 mm
09:49 45.6 °F /  7.6 °C 33.3 °F /  0.7 °C 29.97 in /  1014.8 hPa WNW 7.5 mph /  12.1 km/h 11.5 mph /  18.5 km/h 62 % 0.00 in /  0 mm
09:54 45.4 °F /  7.4 °C 32.7 °F /  0.4 °C 29.97 in /  1014.8 hPa NW 6.1 mph /  9.8 km/h 8.1 mph /  13 km/h 61 % 0.00 in /  0 mm
09:59 45.3 °F /  7.4 °C 33.0 °F /  0.6 °C 29.98 in /  1015.1 hPa West 5.7 mph /  9.2 km/h 11.5 mph /  18.5 km/h 62 % 0.00 in /  0 mm
10:04 45.1 °F /  7.3 °C 32.4 °F /  0.2 °C 29.97 in /  1014.8 hPa WNW 7.5 mph /  12.1 km/h 12.7 mph /  20.4 km/h 61 % 0.00 in /  0 mm
10:09 45.0 °F /  7.2 °C 31.9 °F /  -0.1 °C 29.98 in /  1015.1 hPa NW 8.1 mph /  13 km/h 12.7 mph /  20.4 km/h 60 % 0.00 in /  0 mm
10:14 44.8 °F /  7.1 °C 31.8 °F /  -0.1 °C 29.98 in /  1015.1 hPa West 7.2 mph /  11.6 km/h 13.8 mph /  22.2 km/h 60 % 0.00 in /  0 mm
10:19 44.7 °F /  7.1 °C 32.1 °F /  0.1 °C 29.99 in /  1015.5 hPa WNW 8.0 mph /  12.9 km/h 16.1 mph /  25.9 km/h 61 % 0.00 in /  0 mm
10:24 44.6 °F /  7 °C 32.4 °F /  0.2 °C 29.98 in /  1015.1 hPa WSW 3.5 mph /  5.6 km/h 4.0 mph /  6.4 km/h 62 % 0.00 in /  0 mm
10:29 44.5 °F /  6.9 °C 30.2 °F /  -1 °C 29.98 in /  1015.1 hPa SSW 1.2 mph /  1.9 km/h 8.1 mph /  13 km/h 57 % 0.00 in /  0 mm
10:34 44.3 °F /  6.8 °C 28.7 °F /  -1.8 °C 29.98 in /  1015.1 hPa WSW 4.2 mph /  6.8 km/h 7.0 mph /  11.3 km/h 54 % 0.00 in /  0 mm
10:39 44.3 °F /  6.8 °C 29.1 °F /  -1.6 °C 29.98 in /  1015.1 hPa North 7.3 mph /  11.7 km/h 10.0 mph /  16.1 km/h 55 % 0.00 in /  0 mm
10:44 44.3 °F /  6.8 °C 30.0 °F /  -1.1 °C 29.97 in /  1014.8 hPa WSW 6.1 mph /  9.8 km/h 11.5 mph /  18.5 km/h 57 % 0.00 in /  0 mm
10:45 44.3 °F /  6.8 °C 30.0 °F /  -1.1 °C 29.97 in /  1014.8 hPa WNW 5.9 mph /  9.5 km/h 11.5 mph /  18.5 km/h 57 % 0.00 in /  0 mm
10:50 44.3 °F /  6.8 °C 29.1 °F /  -1.6 °C 29.97 in /  1014.8 hPa West 6.2 mph /  10 km/h 10.4 mph /  16.7 km/h 55 % 0.00 in /  0 mm
10:55 44.3 °F /  6.8 °C 30.0 °F /  -1.1 °C 29.98 in /  1015.1 hPa NW 2.5 mph /  4 km/h 9.2 mph /  14.8 km/h 57 % 0.00 in /  0 mm
11:00 44.3 °F /  6.8 °C 30.9 °F /  -0.6 °C 29.97 in /  1014.8 hPa WNW 2.7 mph /  4.3 km/h 5.8 mph /  9.3 km/h 59 % 0.00 in /  0 mm
11:05 44.4 °F /  6.9 °C 31.4 °F /  -0.3 °C 29.97 in /  1014.8 hPa WNW 5.8 mph /  9.3 km/h 10.4 mph /  16.7 km/h 60 % 0.00 in /  0 mm
11:10 44.5 °F /  6.9 °C 31.5 °F /  -0.3 °C 29.96 in /  1014.4 hPa West 5.1 mph /  8.2 km/h 15.0 mph /  24.1 km/h 60 % 0.00 in /  0 mm
11:15 44.5 °F /  6.9 °C 31.9 °F /  -0.1 °C 29.96 in /  1014.4 hPa West 6.3 mph /  10.1 km/h 11.5 mph /  18.5 km/h 61 % 0.00 in /  0 mm
11:20 44.6 °F /  7 °C 31.6 °F /  -0.2 °C 29.96 in /  1014.4 hPa WNW 4.2 mph /  6.8 km/h 8.1 mph /  13 km/h 60 % 0.00 in /  0 mm
11:25 44.7 °F /  7.1 °C 32.5 °F /  0.3 °C 29.97 in /  1014.8 hPa SW 8.1 mph /  13 km/h 11.5 mph /  18.5 km/h 62 % 0.00 in /  0 mm
11:30 44.8 °F /  7.1 °C 33.0 °F /  0.6 °C 29.97 in /  1014.8 hPa West 3.8 mph /  6.1 km/h 8.0 mph /  12.9 km/h 63 % 0.00 in /  0 mm
11:40 44.7 °F /  7.1 °C 31.7 °F /  -0.2 °C 29.97 in /  1014.8 hPa West 5.9 mph /  9.5 km/h 11.5 mph /  18.5 km/h 60 % 0.00 in /  0 mm
11:45 44.7 °F /  7.1 °C 31.7 °F /  -0.2 °C 29.97 in /  1014.8 hPa West 7.8 mph /  12.6 km/h 9.0 mph /  14.5 km/h 60 % 0.00 in /  0 mm
11:50 44.6 °F /  7 °C 30.3 °F /  -0.9 °C 29.96 in /  1014.4 hPa West 9.4 mph /  15.1 km/h 19.6 mph /  31.5 km/h 57 % 0.00 in /  0 mm
11:55 44.6 °F /  7 °C 29.4 °F /  -1.4 °C 29.96 in /  1014.4 hPa WNW 7.6 mph /  12.2 km/h 16.1 mph /  25.9 km/h 55 % 0.00 in /  0 mm
12:00 44.5 °F /  6.9 °C 28.9 °F /  -1.7 °C 29.96 in /  1014.4 hPa West 8.8 mph /  14.2 km/h 12.0 mph /  19.3 km/h 54 % 0.00 in /  0 mm
12:05 44.5 °F /  6.9 °C 28.9 °F /  -1.7 °C 29.96 in /  1014.4 hPa WNW 5.3 mph /  8.5 km/h 11.5 mph /  18.5 km/h 54 % 0.00 in /  0 mm
12:10 44.4 °F /  6.9 °C 28.3 °F /  -2.1 °C 29.96 in /  1014.4 hPa WNW 7.8 mph /  12.6 km/h 16.0 mph /  25.7 km/h 53 % 0.00 in /  0 mm
12:15 44.3 °F /  6.8 °C 28.7 °F /  -1.8 °C 29.96 in /  1014.4 hPa NW 6.1 mph /  9.8 km/h 13.8 mph /  22.2 km/h 54 % 0.00 in /  0 mm
12:20 44.2 °F /  6.8 °C 28.1 °F /  -2.2 °C 29.96 in /  1014.4 hPa SW 6.0 mph /  9.7 km/h 10.0 mph /  16.1 km/h 53 % 0.00 in /  0 mm
12:25 44.2 °F /  6.8 °C 27.7 °F /  -2.4 °C 29.97 in /  1014.8 hPa WNW 5.4 mph /  8.7 km/h 8.1 mph /  13 km/h 52 % 0.00 in /  0 mm
12:30 44.2 °F /  6.8 °C 26.7 °F /  -2.9 °C 29.96 in /  1014.4 hPa WNW 7.2 mph /  11.6 km/h 11.5 mph /  18.5 km/h 50 % 0.00 in /  0 mm
12:32 44.2 °F /  6.8 °C 26.7 °F /  -2.9 °C 29.96 in /  1014.4 hPa WSW 7.7 mph /  12.4 km/h 11.5 mph /  18.5 km/h 50 % 0.00 in /  0 mm
12:37 44.3 °F /  6.8 °C 27.3 °F /  -2.6 °C 29.96 in /  1014.4 hPa WSW 6.0 mph /  9.7 km/h 12.7 mph /  20.4 km/h 51 % 0.00 in /  0 mm
12:42 44.3 °F /  6.8 °C 25.8 °F /  -3.4 °C 29.95 in /  1014.1 hPa West 3.0 mph /  4.8 km/h 10.4 mph /  16.7 km/h 48 % 0.00 in /  0 mm
12:47 44.3 °F /  6.8 °C 26.8 °F /  -2.9 °C 29.95 in /  1014.1 hPa West 5.2 mph /  8.4 km/h 8.1 mph /  13 km/h 50 % 0.00 in /  0 mm
12:52 44.3 °F /  6.8 °C 27.3 °F /  -2.6 °C 29.94 in /  1013.8 hPa WNW 6.9 mph /  11.1 km/h 12.7 mph /  20.4 km/h 51 % 0.00 in /  0 mm
12:57 44.2 °F /  6.8 °C 27.2 °F /  -2.7 °C 29.94 in /  1013.8 hPa SW 8.3 mph /  13.4 km/h 12.7 mph /  20.4 km/h 51 % 0.00 in /  0 mm
13:02 44.0 °F /  6.7 °C 27.0 °F /  -2.8 °C 29.94 in /  1013.8 hPa SW 6.4 mph /  10.3 km/h 11.5 mph /  18.5 km/h 51 % 0.00 in /  0 mm
13:07 43.8 °F /  6.6 °C 27.8 °F /  -2.3 °C 29.94 in /  1013.8 hPa WSW 3.8 mph /  6.1 km/h 6.0 mph /  9.7 km/h 53 % 0.00 in /  0 mm
13:12 43.7 °F /  6.5 °C 27.7 °F /  -2.4 °C 29.94 in /  1013.8 hPa WNW 2.9 mph /  4.7 km/h 5.8 mph /  9.3 km/h 53 % 0.00 in /  0 mm
13:17 43.7 °F /  6.5 °C 28.1 °F /  -2.2 °C 29.94 in /  1013.8 hPa West 7.6 mph /  12.2 km/h 10.4 mph /  16.7 km/h 54 % 0.00 in /  0 mm
13:22 43.8 °F /  6.6 °C 28.2 °F /  -2.1 °C 29.95 in /  1014.1 hPa SW 9.6 mph /  15.4 km/h 15.0 mph /  24.1 km/h 54 % 0.00 in /  0 mm
13:27 43.9 °F /  6.6 °C 27.4 °F /  -2.6 °C 29.94 in /  1013.8 hPa WSW 5.2 mph /  8.4 km/h 10.4 mph /  16.7 km/h 52 % 0.00 in /  0 mm
13:32 44.0 °F /  6.7 °C 27.5 °F /  -2.5 °C 29.94 in /  1013.8 hPa SW 7.0 mph /  11.3 km/h 11.5 mph /  18.5 km/h 52 % 0.00 in /  0 mm
13:37 44.0 °F /  6.7 °C 27.0 °F /  -2.8 °C 29.94 in /  1013.8 hPa WSW 5.3 mph /  8.5 km/h 11.5 mph /  18.5 km/h 51 % 0.00 in /  0 mm
13:42 44.1 °F /  6.7 °C 27.1 °F /  -2.7 °C 29.94 in /  1013.8 hPa West 4.0 mph /  6.4 km/h 11.5 mph /  18.5 km/h 51 % 0.00 in /  0 mm
13:47 44.2 °F /  6.8 °C 27.2 °F /  -2.7 °C 29.94 in /  1013.8 hPa SW 8.0 mph /  12.9 km/h 12.7 mph /  20.4 km/h 51 % 0.00 in /  0 mm
13:52 44.3 °F /  6.8 °C 26.8 °F /  -2.9 °C 29.93 in /  1013.4 hPa WNW 6.3 mph /  10.1 km/h 11.5 mph /  18.5 km/h 50 % 0.00 in /  0 mm
13:57 44.2 °F /  6.8 °C 26.7 °F /  -2.9 °C 29.93 in /  1013.4 hPa WNW 5.3 mph /  8.5 km/h 9.0 mph /  14.5 km/h 50 % 0.00 in /  0 mm
14:02 44.1 °F /  6.7 °C 26.6 °F /  -3 °C 29.93 in /  1013.4 hPa SW 2.0 mph /  3.2 km/h 5.8 mph /  9.3 km/h 50 % 0.00 in /  0 mm
14:07 44.0 °F /  6.7 °C 27.0 °F /  -2.8 °C 29.93 in /  1013.4 hPa WNW 7.4 mph /  11.9 km/h 11.5 mph /  18.5 km/h 51 % 0.00 in /  0 mm
14:12 43.8 °F /  6.6 °C 25.9 °F /  -3.4 °C 29.94 in /  1013.8 hPa West 3.9 mph /  6.3 km/h 9.2 mph /  14.8 km/h 49 % 0.00 in /  0 mm
14:17 43.7 °F /  6.5 °C 25.8 °F /  -3.4 °C 29.93 in /  1013.4 hPa WSW 4.6 mph /  7.4 km/h 13.8 mph /  22.2 km/h 49 % 0.00 in /  0 mm
14:22 43.4 °F /  6.3 °C 26.0 °F /  -3.3 °C 29.94 in /  1013.8 hPa WSW 4.1 mph /  6.6 km/h 11.5 mph /  18.5 km/h 50 % 0.00 in /  0 mm
14:27 43.3 °F /  6.3 °C 25.9 °F /  -3.4 °C 29.94 in /  1013.8 hPa SW 4.4 mph /  7.1 km/h 13.0 mph /  20.9 km/h 50 % 0.00 in /  0 mm
14:32 43.2 °F /  6.2 °C 25.3 °F /  -3.7 °C 29.94 in /  1013.8 hPa SW 6.0 mph /  9.7 km/h 12.7 mph /  20.4 km/h 49 % 0.00 in /  0 mm
14:37 43.0 °F /  6.1 °C 25.1 °F /  -3.8 °C 29.94 in /  1013.8 hPa WSW 4.5 mph /  7.2 km/h 9.2 mph /  14.8 km/h 49 % 0.00 in /  0 mm
14:42 42.9 °F /  6.1 °C 25.5 °F /  -3.6 °C 29.95 in /  1014.1 hPa WSW 3.5 mph /  5.6 km/h 9.2 mph /  14.8 km/h 50 % 0.00 in /  0 mm
14:47 42.9 °F /  6.1 °C 25.0 °F /  -3.9 °C 29.95 in /  1014.1 hPa WSW 3.4 mph /  5.5 km/h 12.7 mph /  20.4 km/h 49 % 0.00 in /  0 mm
14:52 42.8 °F /  6 °C 24.9 °F /  -3.9 °C 29.95 in /  1014.1 hPa SW 7.3 mph /  11.7 km/h 7.3 mph /  11.7 km/h 49 % 0.00 in /  0 mm
14:57 42.7 °F /  5.9 °C 24.8 °F /  -4 °C 29.95 in /  1014.1 hPa SSW 4.5 mph /  7.2 km/h 11.5 mph /  18.5 km/h 49 % 0.00 in /  0 mm
15:03 42.7 °F /  5.9 °C 25.3 °F /  -3.7 °C 29.95 in /  1014.1 hPa SW 2.2 mph /  3.5 km/h 5.0 mph /  8 km/h 50 % 0.00 in /  0 mm
15:08 42.6 °F /  5.9 °C 25.2 °F /  -3.8 °C 29.95 in /  1014.1 hPa WSW 4.1 mph /  6.6 km/h 8.1 mph /  13 km/h 50 % 0.00 in /  0 mm
15:13 42.6 °F /  5.9 °C 25.2 °F /  -3.8 °C 29.95 in /  1014.1 hPa WSW 1.3 mph /  2.1 km/h 5.8 mph /  9.3 km/h 50 % 0.00 in /  0 mm
15:18 42.5 °F /  5.8 °C 25.1 °F /  -3.8 °C 29.95 in /  1014.1 hPa WSW 5.7 mph /  9.2 km/h 6.9 mph /  11.1 km/h 50 % 0.00 in /  0 mm
15:23 42.5 °F /  5.8 °C 24.7 °F /  -4.1 °C 29.95 in /  1014.1 hPa West 5.2 mph /  8.4 km/h 9.2 mph /  14.8 km/h 49 % 0.00 in /  0 mm
15:28 42.4 °F /  5.8 °C 25.1 °F /  -3.8 °C 29.94 in /  1013.8 hPa SW 5.7 mph /  9.2 km/h 10.0 mph /  16.1 km/h 50 % 0.00 in /  0 mm
15:33 42.4 °F /  5.8 °C 25.1 °F /  -3.8 °C 29.95 in /  1014.1 hPa West 5.8 mph /  9.3 km/h 11.5 mph /  18.5 km/h 50 % 0.00 in /  0 mm
15:38 42.3 °F /  5.7 °C 25.0 °F /  -3.9 °C 29.95 in /  1014.1 hPa West 1.1 mph /  1.8 km/h 4.6 mph /  7.4 km/h 50 % 0.00 in /  0 mm
15:43 42.3 °F /  5.7 °C 25.0 °F /  -3.9 °C 29.95 in /  1014.1 hPa SW 5.9 mph /  9.5 km/h 9.2 mph /  14.8 km/h 50 % 0.00 in /  0 mm
15:48 42.2 °F /  5.7 °C 24.9 °F /  -3.9 °C 29.95 in /  1014.1 hPa WSW 4.1 mph /  6.6 km/h 6.0 mph /  9.7 km/h 50 % 0.00 in /  0 mm
15:53 42.2 °F /  5.7 °C 24.9 °F /  -3.9 °C 29.95 in /  1014.1 hPa WSW 7.0 mph /  11.3 km/h 9.2 mph /  14.8 km/h 50 % 0.00 in /  0 mm
15:58 42.1 °F /  5.6 °C 25.3 °F /  -3.7 °C 29.95 in /  1014.1 hPa SW 0.9 mph /  1.4 km/h 4.0 mph /  6.4 km/h 51 % 0.00 in /  0 mm
16:03 42.0 °F /  5.6 °C 25.2 °F /  -3.8 °C 29.95 in /  1014.1 hPa SSW 2.7 mph /  4.3 km/h 5.0 mph /  8 km/h 51 % 0.00 in /  0 mm
16:08 41.9 °F /  5.5 °C 25.1 °F /  -3.8 °C 29.95 in /  1014.1 hPa SW 4.6 mph /  7.4 km/h 6.9 mph /  11.1 km/h 51 % 0.00 in /  0 mm
16:13 41.8 °F /  5.4 °C 25.0 °F /  -3.9 °C 29.95 in /  1014.1 hPa SSW 3.0 mph /  4.8 km/h 5.8 mph /  9.3 km/h 51 % 0.00 in /  0 mm
16:18 41.7 °F /  5.4 °C 24.9 °F /  -3.9 °C 29.95 in /  1014.1 hPa WSW 1.4 mph /  2.3 km/h 3.5 mph /  5.6 km/h 51 % 0.00 in /  0 mm
16:23 41.6 °F /  5.3 °C 24.8 °F /  -4 °C 29.95 in /  1014.1 hPa SSW 3.7 mph /  6 km/h 6.0 mph /  9.7 km/h 51 % 0.00 in /  0 mm
16:28 41.5 °F /  5.3 °C 24.7 °F /  -4.1 °C 29.96 in /  1014.4 hPa SW 1.6 mph /  2.6 km/h 3.5 mph /  5.6 km/h 51 % 0.00 in /  0 mm
16:33 41.5 °F /  5.3 °C 25.2 °F /  -3.8 °C 29.96 in /  1014.4 hPa SSW 2.5 mph /  4 km/h 4.6 mph /  7.4 km/h 52 % 0.00 in /  0 mm
16:38 41.4 °F /  5.2 °C 25.1 °F /  -3.8 °C 29.96 in /  1014.4 hPa SW 4.3 mph /  6.9 km/h 8.1 mph /  13 km/h 52 % 0.00 in /  0 mm
16:43 41.3 °F /  5.2 °C 25.0 °F /  -3.9 °C 29.96 in /  1014.4 hPa SW 1.4 mph /  2.3 km/h 4.6 mph /  7.4 km/h 52 % 0.00 in /  0 mm
16:48 41.2 °F /  5.1 °C 25.3 °F /  -3.7 °C 29.96 in /  1014.4 hPa SW 2.6 mph /  4.2 km/h 6.9 mph /  11.1 km/h 53 % 0.00 in /  0 mm
16:53 41.1 °F /  5.1 °C 25.3 °F /  -3.7 °C 29.96 in /  1014.4 hPa SW 2.2 mph /  3.5 km/h 6.9 mph /  11.1 km/h 53 % 0.00 in /  0 mm
16:58 41.1 °F /  5.1 °C 25.3 °F /  -3.7 °C 29.97 in /  1014.8 hPa WSW 4.1 mph /  6.6 km/h 4.6 mph /  7.4 km/h 53 % 0.00 in /  0 mm
17:03 41.0 °F /  5 °C 25.2 °F /  -3.8 °C 29.97 in /  1014.8 hPa SW 3.0 mph /  4.8 km/h 3.5 mph /  5.6 km/h 53 % 0.00 in /  0 mm
17:08 41.0 °F /  5 °C 25.2 °F /  -3.8 °C 29.97 in /  1014.8 hPa WSW 1.7 mph /  2.7 km/h 6.0 mph /  9.7 km/h 53 % 0.00 in /  0 mm
17:14 40.9 °F /  4.9 °C 25.1 °F /  -3.8 °C 29.97 in /  1014.8 hPa WSW 2.0 mph /  3.2 km/h 3.5 mph /  5.6 km/h 53 % 0.00 in /  0 mm
17:19 40.9 °F /  4.9 °C 25.1 °F /  -3.8 °C 29.97 in /  1014.8 hPa SW 2.4 mph /  3.9 km/h 4.6 mph /  7.4 km/h 53 % 0.00 in /  0 mm
17:24 40.8 °F /  4.9 °C 25.4 °F /  -3.7 °C 29.97 in /  1014.8 hPa SW 2.8 mph /  4.5 km/h 3.0 mph /  4.8 km/h 54 % 0.00 in /  0 mm
17:29 40.8 °F /  4.9 °C 25.0 °F /  -3.9 °C 29.97 in /  1014.8 hPa West 3.2 mph /  5.1 km/h 5.0 mph /  8 km/h 53 % 0.00 in /  0 mm
17:34 40.9 °F /  4.9 °C 24.6 °F /  -4.1 °C 29.97 in /  1014.8 hPa WSW 3.6 mph /  5.8 km/h 7.0 mph /  11.3 km/h 52 % 0.00 in /  0 mm
17:39 41.0 °F /  5 °C 24.2 °F /  -4.3 °C 29.97 in /  1014.8 hPa WSW 4.0 mph /  6.4 km/h 10.4 mph /  16.7 km/h 51 % 0.00 in /  0 mm
17:44 41.3 °F /  5.2 °C 25.0 °F /  -3.9 °C 29.97 in /  1014.8 hPa SW 3.2 mph /  5.1 km/h 5.8 mph /  9.3 km/h 52 % 0.00 in /  0 mm
17:49 41.5 °F /  5.3 °C 24.7 °F /  -4.1 °C 29.97 in /  1014.8 hPa West 6.7 mph /  10.8 km/h 10.4 mph /  16.7 km/h 51 % 0.00 in /  0 mm
17:54 41.7 °F /  5.4 °C 24.9 °F /  -3.9 °C 29.98 in /  1015.1 hPa WSW 6.9 mph /  11.1 km/h 12.7 mph /  20.4 km/h 51 % 0.00 in /  0 mm
17:59 41.9 °F /  5.5 °C 25.1 °F /  -3.8 °C 29.98 in /  1015.1 hPa West 5.9 mph /  9.5 km/h 8.1 mph /  13 km/h 51 % 0.00 in /  0 mm
18:04 42.0 °F /  5.6 °C 25.2 °F /  -3.8 °C 29.98 in /  1015.1 hPa WNW 4.9 mph /  7.9 km/h 8.1 mph /  13 km/h 51 % 0.00 in /  0 mm
18:09 42.1 °F /  5.6 °C 25.7 °F /  -3.5 °C 29.98 in /  1015.1 hPa NW 7.0 mph /  11.3 km/h 11.5 mph /  18.5 km/h 52 % 0.00 in /  0 mm
18:14 42.2 °F /  5.7 °C 25.8 °F /  -3.4 °C 29.98 in /  1015.1 hPa West 3.1 mph /  5 km/h 8.1 mph /  13 km/h 52 % 0.00 in /  0 mm
18:19 42.2 °F /  5.7 °C 25.8 °F /  -3.4 °C 29.98 in /  1015.1 hPa WSW 1.1 mph /  1.8 km/h 4.6 mph /  7.4 km/h 52 % 0.00 in /  0 mm
18:24 42.3 °F /  5.7 °C 25.9 °F /  -3.4 °C 29.98 in /  1015.1 hPa WSW 4.4 mph /  7.1 km/h 11.5 mph /  18.5 km/h 52 % 0.00 in /  0 mm
18:29 42.3 °F /  5.7 °C 25.4 °F /  -3.7 °C 29.97 in /  1014.8 hPa West 3.4 mph /  5.5 km/h 8.1 mph /  13 km/h 51 % 0.00 in /  0 mm
18:34 42.3 °F /  5.7 °C 25.0 °F /  -3.9 °C 29.97 in /  1014.8 hPa SW 6.3 mph /  10.1 km/h 8.1 mph /  13 km/h 50 % 0.00 in /  0 mm
18:39 42.4 °F /  5.8 °C 25.1 °F /  -3.8 °C 29.98 in /  1015.1 hPa WNW 6.6 mph /  10.6 km/h 8.1 mph /  13 km/h 50 % 0.00 in /  0 mm
18:45 42.4 °F /  5.8 °C 25.5 °F /  -3.6 °C 29.97 in /  1014.8 hPa West 5.6 mph /  9 km/h 8.1 mph /  13 km/h 51 % 0.00 in /  0 mm
18:50 42.4 °F /  5.8 °C 25.5 °F /  -3.6 °C 29.98 in /  1015.1 hPa NW 3.1 mph /  5 km/h 4.0 mph /  6.4 km/h 51 % 0.00 in /  0 mm
18:55 42.4 °F /  5.8 °C 25.5 °F /  -3.6 °C 29.98 in /  1015.1 hPa WSW 6.2 mph /  10 km/h 11.5 mph /  18.5 km/h 51 % 0.00 in /  0 mm
19:00 42.4 °F /  5.8 °C 25.5 °F /  -3.6 °C 29.98 in /  1015.1 hPa WNW 2.5 mph /  4 km/h 8.1 mph /  13 km/h 51 % 0.00 in /  0 mm
19:05 42.5 °F /  5.8 °C 25.6 °F /  -3.6 °C 29.99 in /  1015.5 hPa WNW 2.1 mph /  3.4 km/h 4.6 mph /  7.4 km/h 51 % 0.00 in /  0 mm
19:10 42.5 °F /  5.8 °C 26.1 °F /  -3.3 °C 29.99 in /  1015.5 hPa WNW 4.5 mph /  7.2 km/h 6.9 mph /  11.1 km/h 52 % 0.00 in /  0 mm
19:15 42.4 °F /  5.8 °C 25.5 °F /  -3.6 °C 29.99 in /  1015.5 hPa West 4.5 mph /  7.2 km/h 8.1 mph /  13 km/h 51 % 0.00 in /  0 mm
19:20 42.4 °F /  5.8 °C 26.0 °F /  -3.3 °C 29.99 in /  1015.5 hPa NW 5.1 mph /  8.2 km/h 8.1 mph /  13 km/h 52 % 0.00 in /  0 mm
19:25 42.4 °F /  5.8 °C 26.0 °F /  -3.3 °C 29.99 in /  1015.5 hPa West 2.5 mph /  4 km/h 4.6 mph /  7.4 km/h 52 % 0.00 in /  0 mm
19:26 42.4 °F /  5.8 °C 26.0 °F /  -3.3 °C 29.99 in /  1015.5 hPa WNW 3.9 mph /  6.3 km/h 11.5 mph /  18.5 km/h 52 % 0.00 in /  0 mm
19:31 42.4 °F /  5.8 °C 25.5 °F /  -3.6 °C 29.99 in /  1015.5 hPa West 5.8 mph /  9.3 km/h 10.4 mph /  16.7 km/h 51 % 0.00 in /  0 mm
19:36 42.4 °F /  5.8 °C 25.5 °F /  -3.6 °C 30.00 in /  1015.8 hPa WNW 4.1 mph /  6.6 km/h 8.1 mph /  13 km/h 51 % 0.00 in /  0 mm
19:41 42.4 °F /  5.8 °C 25.5 °F /  -3.6 °C 29.99 in /  1015.5 hPa West 5.9 mph /  9.5 km/h 8.1 mph /  13 km/h 51 % 0.00 in /  0 mm
19:46 42.4 °F /  5.8 °C 25.5 °F /  -3.6 °C 30.00 in /  1015.8 hPa WNW 3.9 mph /  6.3 km/h 9.2 mph /  14.8 km/h 51 % 0.00 in /  0 mm
19:52 42.4 °F /  5.8 °C 25.5 °F /  -3.6 °C 29.99 in /  1015.5 hPa WSW 2.0 mph /  3.2 km/h 9.2 mph /  14.8 km/h 51 % 0.00 in /  0 mm
19:57 42.4 °F /  5.8 °C 25.1 °F /  -3.8 °C 29.99 in /  1015.5 hPa WSW 6.1 mph /  9.8 km/h 10.0 mph /  16.1 km/h 50 % 0.00 in /  0 mm
20:02 42.4 °F /  5.8 °C 25.5 °F /  -3.6 °C 29.99 in /  1015.5 hPa WSW 5.8 mph /  9.3 km/h 8.1 mph /  13 km/h 51 % 0.00 in /  0 mm
20:07 42.3 °F /  5.7 °C 25.4 °F /  -3.7 °C 30.00 in /  1015.8 hPa West 2.3 mph /  3.7 km/h 4.6 mph /  7.4 km/h 51 % 0.00 in /  0 mm
20:09 42.3 °F /  5.7 °C 25.0 °F /  -3.9 °C 29.99 in /  1015.5 hPa West 4.6 mph /  7.4 km/h 8.1 mph /  13 km/h 50 % 0.00 in /  0 mm
20:14 42.3 °F /  5.7 °C 25.9 °F /  -3.4 °C 29.99 in /  1015.5 hPa WSW 2.7 mph /  4.3 km/h 5.8 mph /  9.3 km/h 52 % 0.00 in /  0 mm
20:19 42.2 °F /  5.7 °C 26.3 °F /  -3.2 °C 29.99 in /  1015.5 hPa West 4.7 mph /  7.6 km/h 8.1 mph /  13 km/h 53 % 0.00 in /  0 mm
20:24 42.2 °F /  5.7 °C 26.3 °F /  -3.2 °C 29.99 in /  1015.5 hPa West 4.8 mph /  7.7 km/h 11.5 mph /  18.5 km/h 53 % 0.00 in /  0 mm
20:29 42.2 °F /  5.7 °C 25.8 °F /  -3.4 °C 29.99 in /  1015.5 hPa WSW 4.9 mph /  7.9 km/h 9.2 mph /  14.8 km/h 52 % 0.00 in /  0 mm
20:34 42.2 °F /  5.7 °C 25.8 °F /  -3.4 °C 29.99 in /  1015.5 hPa WNW 3.6 mph /  5.8 km/h 5.8 mph /  9.3 km/h 52 % 0.00 in /  0 mm
20:39 42.1 °F /  5.6 °C 26.2 °F /  -3.2 °C 30.00 in /  1015.8 hPa WNW 1.9 mph /  3.1 km/h 4.6 mph /  7.4 km/h 53 % 0.00 in /  0 mm
20:44 42.1 °F /  5.6 °C 26.2 °F /  -3.2 °C 30.00 in /  1015.8 hPa WSW 1.3 mph /  2.1 km/h 3.5 mph /  5.6 km/h 53 % 0.00 in /  0 mm
20:49 42.1 °F /  5.6 °C 26.6 °F /  -3 °C 30.00 in /  1015.8 hPa WSW 2.8 mph /  4.5 km/h 4.6 mph /  7.4 km/h 54 % 0.00 in /  0 mm
20:54 42.0 °F /  5.6 °C 26.1 °F /  -3.3 °C 30.00 in /  1015.8 hPa SW 3.8 mph /  6.1 km/h 6.9 mph /  11.1 km/h 53 % 0.00 in /  0 mm
20:59 41.9 °F /  5.5 °C 26.0 °F /  -3.3 °C 30.00 in /  1015.8 hPa West 2.1 mph /  3.4 km/h 4.6 mph /  7.4 km/h 53 % 0.00 in /  0 mm
21:04 41.9 °F /  5.5 °C 26.0 °F /  -3.3 °C 30.00 in /  1015.8 hPa WSW 1.1 mph /  1.8 km/h 3.5 mph /  5.6 km/h 53 % 0.00 in /  0 mm
21:09 41.7 °F /  5.4 °C 25.8 °F /  -3.4 °C 30.00 in /  1015.8 hPa South 1.2 mph /  1.9 km/h 8.1 mph /  13 km/h 53 % 0.00 in /  0 mm
21:14 41.6 °F /  5.3 °C 25.7 °F /  -3.5 °C 30.00 in /  1015.8 hPa WSW 1.8 mph /  2.9 km/h 3.5 mph /  5.6 km/h 53 % 0.00 in /  0 mm
21:19 41.5 °F /  5.3 °C 26.1 °F /  -3.3 °C 30.00 in /  1015.8 hPa SW 1.2 mph /  1.9 km/h 4.6 mph /  7.4 km/h 54 % 0.00 in /  0 mm
21:24 41.4 °F /  5.2 °C 26.0 °F /  -3.3 °C 30.00 in /  1015.8 hPa West 4.1 mph /  6.6 km/h 11.0 mph /  17.7 km/h 54 % 0.00 in /  0 mm
21:29 41.3 °F /  5.2 °C 25.9 °F /  -3.4 °C 30.00 in /  1015.8 hPa SW 4.2 mph /  6.8 km/h 8.1 mph /  13 km/h 54 % 0.00 in /  0 mm
21:34 41.2 °F /  5.1 °C 26.2 °F /  -3.2 °C 30.00 in /  1015.8 hPa SW 4.0 mph /  6.4 km/h 6.0 mph /  9.7 km/h 55 % 0.00 in /  0 mm
21:39 41.1 °F /  5.1 °C 26.1 °F /  -3.3 °C 30.01 in /  1016.1 hPa SW 3.4 mph /  5.5 km/h 5.8 mph /  9.3 km/h 55 % 0.00 in /  0 mm
21:44 41.0 °F /  5 °C 26.1 °F /  -3.3 °C 30.01 in /  1016.1 hPa SW 5.5 mph /  8.9 km/h 8.1 mph /  13 km/h 55 % 0.00 in /  0 mm
21:49 40.9 °F /  4.9 °C 26.0 °F /  -3.3 °C 30.00 in /  1015.8 hPa SE 4.4 mph /  7.1 km/h 8.1 mph /  13 km/h 55 % 0.00 in /  0 mm
21:54 40.8 °F /  4.9 °C 25.9 °F /  -3.4 °C 30.00 in /  1015.8 hPa SW 3.8 mph /  6.1 km/h 6.9 mph /  11.1 km/h 55 % 0.00 in /  0 mm
21:59 40.8 °F /  4.9 °C 26.3 °F /  -3.2 °C 30.00 in /  1015.8 hPa South 3.1 mph /  5 km/h 11.5 mph /  18.5 km/h 56 % 0.00 in /  0 mm
22:00 40.8 °F /  4.9 °C 26.3 °F /  -3.2 °C 30.00 in /  1015.8 hPa WSW 2.3 mph /  3.7 km/h 11.5 mph /  18.5 km/h 56 % 0.00 in /  0 mm
22:05 40.7 °F /  4.8 °C 26.6 °F /  -3 °C 30.00 in /  1015.8 hPa SW 0.2 mph /  0.3 km/h 5.8 mph /  9.3 km/h 57 % 0.00 in /  0 mm
22:10 40.7 °F /  4.8 °C 26.6 °F /  -3 °C 30.00 in /  1015.8 hPa SW 5.2 mph /  8.4 km/h 8.1 mph /  13 km/h 57 % 0.00 in /  0 mm
22:15 40.7 °F /  4.8 °C 26.6 °F /  -3 °C 30.00 in /  1015.8 hPa SW 2.2 mph /  3.5 km/h 5.8 mph /  9.3 km/h 57 % 0.00 in /  0 mm
22:20 40.7 °F /  4.8 °C 26.6 °F /  -3 °C 30.00 in /  1015.8 hPa WSW 3.6 mph /  5.8 km/h 5.0 mph /  8 km/h 57 % 0.00 in /  0 mm
22:22 40.6 °F /  4.8 °C 26.5 °F /  -3.1 °C 29.78 in /  1008.4 hPa WSW 3.8 mph /  6.1 km/h 9.2 mph /  14.8 km/h 57 % 0.00 in /  0 mm
22:23 40.6 °F /  4.8 °C 26.5 °F /  -3.1 °C 29.78 in /  1008.4 hPa WSW 3.6 mph /  5.8 km/h 9.2 mph /  14.8 km/h 57 % 0.00 in /  0 mm
22:28 40.6 °F /  4.8 °C 26.1 °F /  -3.3 °C 30.00 in /  1015.8 hPa SW 4.8 mph /  7.7 km/h 5.8 mph /  9.3 km/h 56 % 0.00 in /  0 mm
22:33 40.5 °F /  4.7 °C 25.6 °F /  -3.6 °C 30.00 in /  1015.8 hPa WSW 2.9 mph /  4.7 km/h 6.9 mph /  11.1 km/h 55 % 0.00 in /  0 mm
22:38 40.5 °F /  4.7 °C 25.6 °F /  -3.6 °C 30.00 in /  1015.8 hPa SSW 4.0 mph /  6.4 km/h 9.2 mph /  14.8 km/h 55 % 0.00 in /  0 mm
22:43 40.5 °F /  4.7 °C 25.6 °F /  -3.6 °C 30.00 in /  1015.8 hPa SW 3.3 mph /  5.3 km/h 5.8 mph /  9.3 km/h 55 % 0.00 in /  0 mm
22:48 40.4 °F /  4.7 °C 25.5 °F /  -3.6 °C 30.00 in /  1015.8 hPa WSW 2.3 mph /  3.7 km/h 6.9 mph /  11.1 km/h 55 % 0.00 in /  0 mm
22:53 40.4 °F /  4.7 °C 25.5 °F /  -3.6 °C 30.00 in /  1015.8 hPa SSW 1.1 mph /  1.8 km/h 3.5 mph /  5.6 km/h 55 % 0.00 in /  0 mm
22:58 40.3 °F /  4.6 °C 25.0 °F /  -3.9 °C 30.00 in /  1015.8 hPa WSW 2.2 mph /  3.5 km/h 6.9 mph /  11.1 km/h 54 % 0.00 in /  0 mm
23:03 40.2 °F /  4.6 °C 24.9 °F /  -3.9 °C 30.00 in /  1015.8 hPa WSW 0.1 mph /  0.2 km/h 1.2 mph /  1.9 km/h 54 % 0.00 in /  0 mm
23:08 40.2 °F /  4.6 °C 25.3 °F /  -3.7 °C 30.00 in /  1015.8 hPa SSW 2.5 mph /  4 km/h 4.6 mph /  7.4 km/h 55 % 0.00 in /  0 mm
23:13 40.0 °F /  4.4 °C 25.1 °F /  -3.8 °C 30.00 in /  1015.8 hPa West 1.6 mph /  2.6 km/h 5.8 mph /  9.3 km/h 55 % 0.00 in /  0 mm
23:18 40.0 °F /  4.4 °C 25.6 °F /  -3.6 °C 29.99 in /  1015.5 hPa SW 0.4 mph /  0.6 km/h 1.2 mph /  1.9 km/h 56 % 0.00 in /  0 mm
23:23 39.9 °F /  4.4 °C 25.5 °F /  -3.6 °C 30.00 in /  1015.8 hPa SW 2.3 mph /  3.7 km/h 4.0 mph /  6.4 km/h 56 % 0.00 in /  0 mm
23:28 39.8 °F /  4.3 °C 25.4 °F /  -3.7 °C 29.99 in /  1015.5 hPa SW 0.6 mph /  1 km/h 3.5 mph /  5.6 km/h 56 % 0.00 in /  0 mm
23:33 39.7 °F /  4.3 °C 25.7 °F /  -3.5 °C 30.00 in /  1015.8 hPa South 0.3 mph /  0.5 km/h 1.2 mph /  1.9 km/h 57 % 0.00 in /  0 mm
23:38 39.6 °F /  4.2 °C 25.2 °F /  -3.8 °C 29.99 in /  1015.5 hPa SW 2.6 mph /  4.2 km/h 6.9 mph /  11.1 km/h 56 % 0.00 in /  0 mm
23:43 39.5 °F /  4.2 °C 25.1 °F /  -3.8 °C 29.99 in /  1015.5 hPa WSW 3.9 mph /  6.3 km/h 8.1 mph /  13 km/h 56 % 0.00 in /  0 mm
23:48 39.4 °F /  4.1 °C 25.0 °F /  -3.9 °C 29.99 in /  1015.5 hPa SW 1.1 mph /  1.8 km/h 3.5 mph /  5.6 km/h 56 % 0.00 in /  0 mm
23:53 39.4 °F /  4.1 °C 25.0 °F /  -3.9 °C 29.98 in /  1015.1 hPa SW 1.5 mph /  2.4 km/h 5.8 mph /  9.3 km/h 56 % 0.00 in /  0 mm
23:58 39.3 °F /  4.1 °C 25.3 °F /  -3.7 °C 29.99 in /  1015.5 hPa SSW 3.4 mph /  5.5 km/h 4.6 mph /  7.4 km/h 57 % 0.00 in /  0 mm
Crab Meadow Weather
Compliments of Weather Underground - 3 mb

Script developed by  Jim McMurry - jmcmurry@mwt.net Adapted for the template by  Wim van der Kuil - Leuven-Template.eu

Recycling: A used aluminum can is recycled and back on the grocery shelf as a new can, in as little as 60 days.